createdAt,value
2022-12-08T00:01:27.019Z,10.18
2022-12-08T00:03:54.709Z,14.27
2022-12-08T00:06:45.200Z,7.28
2022-12-08T00:09:22.778Z,4.88
2022-12-08T00:12:01.041Z,4.70
2022-12-08T00:14:30.998Z,3.80
2022-12-08T00:16:58.801Z,3.30
2022-12-08T00:19:26.992Z,3.10
2022-12-08T00:21:55.442Z,2.75
2022-12-08T00:24:24.224Z,2.90
2022-12-08T00:26:51.818Z,3.22
2022-12-08T00:29:19.355Z,3.38
2022-12-08T00:31:46.816Z,3.42
2022-12-08T00:34:14.949Z,3.72
2022-12-08T00:36:43.388Z,3.53
2022-12-08T00:39:12.201Z,2.90
2022-12-08T00:41:57.801Z,2.75
2022-12-08T00:44:25.139Z,2.90
2022-12-08T00:46:52.444Z,2.55
2022-12-08T00:49:19.986Z,2.38
2022-12-08T00:51:47.606Z,2.67
2022-12-08T00:54:14.982Z,2.28
2022-12-08T00:56:42.413Z,2.40
2022-12-08T00:59:09.735Z,2.22
2022-12-08T01:01:37.249Z,2.50
2022-12-08T01:04:06.081Z,1.90
2022-12-08T01:06:35.810Z,1.65
2022-12-08T01:09:04.392Z,1.85
2022-12-08T01:11:31.698Z,1.63
2022-12-08T01:13:58.975Z,2.13
2022-12-08T01:16:28.869Z,1.33
2022-12-08T01:18:57.870Z,1.40
2022-12-08T01:21:25.257Z,1.45
2022-12-08T01:23:52.594Z,1.40
2022-12-08T01:26:22.876Z,1.67
2022-12-08T01:28:50.196Z,0.98
2022-12-08T01:31:19.762Z,0.82
2022-12-08T01:33:47.910Z,0.80
2022-12-08T01:36:37.204Z,0.90
2022-12-08T01:39:06.756Z,0.68
2022-12-08T01:41:38.029Z,0.90
2022-12-08T01:44:10.875Z,0.90
2022-12-08T01:46:43.907Z,0.60
2022-12-08T01:49:30.993Z,1.10
2022-12-08T01:52:03.566Z,0.82
2022-12-08T01:54:33.740Z,0.50
2022-12-08T01:57:01.429Z,0.65
2022-12-08T01:59:29.465Z,0.60
2022-12-08T02:01:57.309Z,0.85
2022-12-08T02:04:24.633Z,0.65
2022-12-08T02:06:52.584Z,0.70
2022-12-08T02:09:20.528Z,0.68
2022-12-08T02:11:48.667Z,1.00
2022-12-08T02:14:16.118Z,0.70
2022-12-08T02:16:55.068Z,0.68
2022-12-08T02:19:40.974Z,1.13
2022-12-08T02:22:22.344Z,0.70
2022-12-08T02:25:01.614Z,1.10
2022-12-08T02:27:41.678Z,0.88
2022-12-08T02:30:16.012Z,1.00
2022-12-08T02:32:52.369Z,0.90
2022-12-08T02:35:32.339Z,1.17
2022-12-08T02:38:05.566Z,1.05
2022-12-08T02:40:37.385Z,0.90
2022-12-08T02:43:09.592Z,1.00
2022-12-08T02:45:39.609Z,0.90
2022-12-08T02:48:07.117Z,1.08
2022-12-08T02:50:34.506Z,1.08
2022-12-08T02:53:02.914Z,1.08
2022-12-08T02:55:42.869Z,1.10
2022-12-08T02:58:38.151Z,1.20
2022-12-08T03:01:44.276Z,1.25
2022-12-08T03:04:32.557Z,0.90
2022-12-08T03:07:15.202Z,0.88
2022-12-08T03:09:44.392Z,0.93
2022-12-08T03:12:38.388Z,1.25
2022-12-08T03:15:13.384Z,1.20
2022-12-08T03:17:44.079Z,0.70
2022-12-08T03:20:14.202Z,1.10
2022-12-08T03:22:42.680Z,0.95
2022-12-08T03:25:12.696Z,1.13
2022-12-08T03:27:43.529Z,1.10
2022-12-08T03:30:11.401Z,0.95
2022-12-08T03:32:47.663Z,1.02
2022-12-08T03:35:20.502Z,1.10
2022-12-08T03:37:48.109Z,1.00
2022-12-08T03:40:18.452Z,1.02
2022-12-08T03:42:45.715Z,1.17
2022-12-08T03:45:12.949Z,1.13
2022-12-08T03:47:40.241Z,1.40
2022-12-08T03:50:07.958Z,1.20
2022-12-08T03:52:35.291Z,1.02
2022-12-08T03:55:02.572Z,1.50
2022-12-08T03:57:29.873Z,1.30
2022-12-08T03:59:57.219Z,1.30
2022-12-08T04:02:24.601Z,1.30
2022-12-08T04:04:52.136Z,1.20
2022-12-08T04:07:19.362Z,1.40
2022-12-08T04:09:46.542Z,1.90
2022-12-08T04:12:13.831Z,1.65
2022-12-08T04:14:41.140Z,1.20
2022-12-08T04:17:08.410Z,1.63
2022-12-08T04:19:35.707Z,1.95
2022-12-08T04:22:02.933Z,1.50
2022-12-08T04:24:30.246Z,1.88
2022-12-08T04:26:57.470Z,1.38
2022-12-08T04:29:24.686Z,1.20
2022-12-08T04:31:52.040Z,1.30
2022-12-08T04:34:19.287Z,1.70
2022-12-08T04:36:46.511Z,1.90
2022-12-08T04:39:13.765Z,1.63
2022-12-08T04:41:41.160Z,1.52
2022-12-08T04:44:08.475Z,1.50
2022-12-08T04:46:40.218Z,1.52
2022-12-08T04:49:10.357Z,1.70
2022-12-08T04:51:37.674Z,1.33
2022-12-08T04:54:05.076Z,0.93
2022-12-08T04:56:32.791Z,0.90
2022-12-08T04:59:00.083Z,1.50
2022-12-08T05:01:27.484Z,1.30
2022-12-08T05:03:54.777Z,0.90
2022-12-08T05:06:22.195Z,0.88
2022-12-08T05:08:49.552Z,0.77
2022-12-08T05:11:16.820Z,0.70
2022-12-08T05:13:44.013Z,0.57
2022-12-08T05:16:13.626Z,0.70
2022-12-08T05:18:41.930Z,0.80
2022-12-08T05:21:09.868Z,0.70
2022-12-08T05:23:37.332Z,1.45
2022-12-08T05:26:04.746Z,0.80
2022-12-08T05:28:41.337Z,0.77
2022-12-08T05:31:10.403Z,0.95
2022-12-08T05:33:37.709Z,0.80
2022-12-08T05:36:05.093Z,1.35
2022-12-08T05:38:33.328Z,1.20
2022-12-08T05:41:00.687Z,1.00
2022-12-08T05:43:28.095Z,0.90
2022-12-08T05:45:55.463Z,1.10
2022-12-08T05:48:22.756Z,1.10
2022-12-08T05:50:51.032Z,1.00
2022-12-08T05:53:19.910Z,1.00
2022-12-08T05:55:47.939Z,1.00
2022-12-08T05:58:19.736Z,1.08
2022-12-08T06:00:48.258Z,1.17
2022-12-08T06:03:17.068Z,1.30
2022-12-08T06:05:45.687Z,1.77
2022-12-08T06:08:13.356Z,1.40
2022-12-08T06:10:44.671Z,1.38
2022-12-08T06:13:12.110Z,1.30
2022-12-08T06:15:39.934Z,1.58
2022-12-08T06:18:08.166Z,1.45
2022-12-08T06:20:35.604Z,1.20
2022-12-08T06:23:03.583Z,1.25
2022-12-08T06:25:30.878Z,1.25
2022-12-08T06:27:58.160Z,1.20
2022-12-08T06:30:26.070Z,0.80
2022-12-08T06:32:53.331Z,0.82
2022-12-08T06:35:20.696Z,1.10
2022-12-08T06:37:50.231Z,1.00
2022-12-08T06:40:17.552Z,0.93
2022-12-08T06:42:46.601Z,1.20
2022-12-08T06:45:15.943Z,0.90
2022-12-08T06:47:43.441Z,0.65
2022-12-08T06:50:11.853Z,0.65
2022-12-08T06:52:49.371Z,0.80
2022-12-08T06:55:50.843Z,0.80
2022-12-08T06:58:11.849Z,0.98
2022-12-08T07:00:39.776Z,1.35
2022-12-08T07:03:08.763Z,1.60
2022-12-08T07:05:36.909Z,1.30
2022-12-08T07:08:07.172Z,1.60
2022-12-08T07:10:35.234Z,1.85
2022-12-08T07:16:10.588Z,1.98
2022-12-08T07:18:38.497Z,2.05
2022-12-08T07:21:11.339Z,2.40
2022-12-08T07:23:39.268Z,1.88
2022-12-08T07:26:08.646Z,2.00
2022-12-08T07:29:04.414Z,2.28
2022-12-08T07:31:32.020Z,2.20
2022-12-08T07:33:59.580Z,2.60
2022-12-08T07:36:27.825Z,2.53
2022-12-08T07:38:55.226Z,3.42
2022-12-08T07:41:24.193Z,3.30
2022-12-08T07:43:51.912Z,3.63
2022-12-08T07:46:21.308Z,3.50
2022-12-08T07:48:59.200Z,3.45
2022-12-08T07:51:26.583Z,3.13
2022-12-08T07:53:55.068Z,3.13
2022-12-08T07:56:23.067Z,3.63
2022-12-08T07:58:50.542Z,3.90
2022-12-08T08:01:27.964Z,4.00
2022-12-08T08:03:57.398Z,3.65
2022-12-08T08:06:25.029Z,3.60
2022-12-08T08:08:52.262Z,2.92
2022-12-08T08:11:21.553Z,2.75
2022-12-08T08:13:49.991Z,2.60
2022-12-08T08:16:18.096Z,2.90
2022-12-08T08:18:48.931Z,2.70
2022-12-08T08:21:43.993Z,2.47
2022-12-08T08:24:07.528Z,2.83
2022-12-08T08:26:36.065Z,2.70
2022-12-08T08:29:03.384Z,3.00
2022-12-08T08:31:30.953Z,2.85
2022-12-08T08:33:58.732Z,2.42
2022-12-08T08:36:25.990Z,2.45
2022-12-08T08:38:53.252Z,2.00
2022-12-08T08:41:20.466Z,1.90
2022-12-08T08:43:47.746Z,2.15
2022-12-08T08:46:15.114Z,1.83
2022-12-08T08:48:42.454Z,1.98
2022-12-08T08:51:18.905Z,1.83
2022-12-08T08:53:46.467Z,1.60
2022-12-08T08:56:15.507Z,1.63
2022-12-08T08:58:42.982Z,1.52
2022-12-08T09:01:14.648Z,1.65
2022-12-08T09:03:41.945Z,1.30
2022-12-08T09:06:09.248Z,1.42
2022-12-08T09:08:40.298Z,1.40
2022-12-08T09:11:08.302Z,1.00
2022-12-08T09:13:35.927Z,0.70
2022-12-08T09:16:04.982Z,0.80
2022-12-08T09:18:32.851Z,0.85
2022-12-08T09:21:15.117Z,1.25
2022-12-08T09:23:42.805Z,0.70
2022-12-08T09:26:10.394Z,0.60
2022-12-08T09:28:38.445Z,0.80
2022-12-08T09:31:07.192Z,1.08
2022-12-08T09:33:34.667Z,1.60
2022-12-08T09:36:07.295Z,1.60
2022-12-08T09:38:37.007Z,1.40
2022-12-08T09:41:14.373Z,1.17
2022-12-08T09:44:12.507Z,1.27
2022-12-08T09:46:40.282Z,1.23
2022-12-08T09:49:16.721Z,1.10
2022-12-08T09:51:45.773Z,1.08
2022-12-08T09:54:18.116Z,1.08
2022-12-08T09:56:45.448Z,1.10
2022-12-08T09:59:29.690Z,1.25
2022-12-08T10:01:57.269Z,1.48
2022-12-08T10:04:27.998Z,1.90
2022-12-08T10:07:17.036Z,2.00
2022-12-08T10:10:01.635Z,2.65
2022-12-08T10:12:50.681Z,2.60
2022-12-08T10:15:39.247Z,2.58
2022-12-08T10:18:16.275Z,2.60
2022-12-08T10:20:45.793Z,2.63
2022-12-08T10:23:12.992Z,2.80
2022-12-08T10:25:45.332Z,2.80
2022-12-08T10:28:13.298Z,3.00
2022-12-08T10:30:40.840Z,3.00
2022-12-08T10:33:17.316Z,3.10
2022-12-08T10:35:46.234Z,3.20
2022-12-08T10:38:31.826Z,3.75
2022-12-08T10:41:20.837Z,3.70
2022-12-08T10:43:50.301Z,3.80
2022-12-08T10:46:22.542Z,3.75
2022-12-08T10:49:08.719Z,4.45
2022-12-08T10:51:39.751Z,4.60
2022-12-08T10:54:33.169Z,5.05
2022-12-08T10:59:27.676Z,6.50
2022-12-08T11:02:03.782Z,6.38
2022-12-08T11:04:37.266Z,5.32
2022-12-08T11:07:20.264Z,6.72
2022-12-08T11:09:50.796Z,7.03
2022-12-08T11:12:22.386Z,6.25
2022-12-08T11:14:56.291Z,7.30
2022-12-08T11:17:24.913Z,6.97
2022-12-08T11:20:08.952Z,7.30
2022-12-08T11:22:40.006Z,7.22
2022-12-08T11:25:33.494Z,7.53
2022-12-08T11:28:02.198Z,7.20
2022-12-08T11:30:38.356Z,6.78
2022-12-08T11:33:19.517Z,6.40
2022-12-08T11:35:50.492Z,6.60
2022-12-08T11:38:24.309Z,7.03
2022-12-08T11:40:56.818Z,6.90
2022-12-08T11:43:30.786Z,6.25
2022-12-08T11:46:03.486Z,7.57
2022-12-08T11:48:37.527Z,8.18
2022-12-08T11:51:13.474Z,8.27
2022-12-08T11:54:07.140Z,9.50
2022-12-08T11:56:54.061Z,9.25
2022-12-08T11:59:31.918Z,9.02
2022-12-08T12:02:01.060Z,10.05
2022-12-08T12:04:50.149Z,10.15
2022-12-08T12:07:39.293Z,9.75
2022-12-08T12:10:18.944Z,10.32
2022-12-08T12:13:15.372Z,9.98
2022-12-08T12:16:21.134Z,12.02
2022-12-08T12:18:57.765Z,11.18
2022-12-08T12:21:46.254Z,10.63
2022-12-08T12:24:23.920Z,11.60
2022-12-08T12:27:03.278Z,10.60
2022-12-08T12:29:33.296Z,10.65
2022-12-08T12:32:09.487Z,10.18
2022-12-08T12:34:55.306Z,9.43
2022-12-08T12:37:40.062Z,7.57
2022-12-08T12:40:17.360Z,6.85
2022-12-08T12:42:55.280Z,4.90
2022-12-08T12:45:22.451Z,4.60
2022-12-08T12:48:01.490Z,3.40
2022-12-08T12:50:34.786Z,2.90
2022-12-08T12:53:16.534Z,2.22
2022-12-08T12:56:00.470Z,2.40
2022-12-08T12:58:36.746Z,2.92
2022-12-08T13:01:13.100Z,2.00
2022-12-08T13:03:45.632Z,1.50
2022-12-08T13:06:15.090Z,1.73
2022-12-08T13:08:54.423Z,1.80
2022-12-08T13:11:22.441Z,1.63
2022-12-08T13:14:03.997Z,1.80
2022-12-08T13:16:38.459Z,1.60
2022-12-08T13:19:12.803Z,1.65
2022-12-08T13:21:46.363Z,1.40
2022-12-08T13:24:20.127Z,1.40
2022-12-08T13:26:49.483Z,1.27
2022-12-08T13:29:22.485Z,1.30
2022-12-08T13:32:05.232Z,1.20
2022-12-08T13:35:00.187Z,1.20
2022-12-08T13:37:53.888Z,1.60
2022-12-08T13:40:27.256Z,1.70
2022-12-08T13:43:25.769Z,1.52
2022-12-08T13:57:33.064Z,2.33
2022-12-08T14:00:02.418Z,2.10
2022-12-08T14:02:40.700Z,1.90
2022-12-08T14:05:35.190Z,2.20
2022-12-08T14:07:58.575Z,2.40
2022-12-08T14:10:28.850Z,2.40
2022-12-08T14:13:03.302Z,1.80
2022-12-08T14:15:37.828Z,2.25
2022-12-08T14:18:07.402Z,2.00
2022-12-08T14:20:57.805Z,1.50
2022-12-08T14:23:23.103Z,1.92
2022-12-08T14:25:50.410Z,2.15
2022-12-08T14:28:17.949Z,1.65
2022-12-08T14:30:45.619Z,1.90
2022-12-08T14:33:17.440Z,1.80
2022-12-08T14:35:50.748Z,1.50
2022-12-08T14:38:20.361Z,1.50
2022-12-08T14:41:08.672Z,1.90
2022-12-08T14:43:36.259Z,1.80
2022-12-08T14:46:06.828Z,1.60
2022-12-08T14:48:34.168Z,1.90
2022-12-08T14:51:40.224Z,1.40
2022-12-08T14:54:13.425Z,0.90
2022-12-08T14:56:53.573Z,1.00
2022-12-08T14:59:33.881Z,1.13
2022-12-08T15:02:16.242Z,1.40
2022-12-08T15:04:48.833Z,1.40
2022-12-08T15:07:28.517Z,1.38
2022-12-08T15:10:16.451Z,1.10
2022-12-08T15:13:05.688Z,0.80
2022-12-08T15:15:46.898Z,0.98
2022-12-08T15:18:48.510Z,1.10
2022-12-08T15:21:15.876Z,1.40
2022-12-08T15:23:50.163Z,1.10
2022-12-08T15:26:24.668Z,1.10
2022-12-08T15:28:52.157Z,1.40
2022-12-08T15:31:19.710Z,1.30
2022-12-08T15:33:47.542Z,1.40
2022-12-08T15:36:14.853Z,1.60
2022-12-08T15:38:42.492Z,1.60
2022-12-08T15:41:14.601Z,1.75
2022-12-08T15:43:42.562Z,1.30
2022-12-08T15:46:10.059Z,1.63
2022-12-08T15:48:38.059Z,1.88
2022-12-08T15:51:05.484Z,2.10
2022-12-08T15:53:32.971Z,2.47
2022-12-08T15:56:26.805Z,2.60
2022-12-08T15:58:53.998Z,3.30
2022-12-08T16:01:23.022Z,4.57
2022-12-08T16:09:35.644Z,3.28
2022-12-08T16:12:23.820Z,3.08
2022-12-08T16:17:40.884Z,2.95
2022-12-08T16:20:13.200Z,2.75
2022-12-08T16:25:41.041Z,2.70
2022-12-08T16:28:52.354Z,2.85
2022-12-08T16:31:10.262Z,2.35
2022-12-08T16:33:44.523Z,3.20
2022-12-08T16:36:12.543Z,2.75
2022-12-08T16:38:40.446Z,3.30
2022-12-08T16:41:33.893Z,2.72
2022-12-08T16:44:06.764Z,1.92
2022-12-08T16:49:05.797Z,1.70
2022-12-08T16:51:41.090Z,1.42
2022-12-08T16:54:09.950Z,1.80
2022-12-08T16:56:38.011Z,1.80
2022-12-08T16:59:08.209Z,2.00
2022-12-08T17:01:36.177Z,2.72
2022-12-08T17:06:53.252Z,2.45
2022-12-08T17:09:21.685Z,2.60
2022-12-08T17:11:51.650Z,2.80
2022-12-08T17:14:20.198Z,3.88
2022-12-08T17:16:50.467Z,4.00
2022-12-08T17:19:19.198Z,3.38
2022-12-08T17:21:47.754Z,3.78
2022-12-08T17:26:53.048Z,6.63
2022-12-08T17:29:20.987Z,8.65
2022-12-08T17:31:49.031Z,10.15
2022-12-08T17:34:17.592Z,11.43
2022-12-08T17:36:47.209Z,12.10
2022-12-08T17:39:18.644Z,13.18
2022-12-08T17:41:52.548Z,14.75
2022-12-08T17:44:21.836Z,14.43
2022-12-08T17:46:55.157Z,15.45
2022-12-08T17:49:25.749Z,14.75
2022-12-08T17:51:57.017Z,14.30
2022-12-08T17:54:24.657Z,14.50
2022-12-08T17:56:53.017Z,14.02
2022-12-08T17:59:20.815Z,13.93
2022-12-08T18:01:48.669Z,13.10
2022-12-08T18:04:17.761Z,13.85
2022-12-08T18:06:46.929Z,12.82
2022-12-08T18:09:15.667Z,13.13
2022-12-08T18:11:44.318Z,13.55
2022-12-08T18:14:12.725Z,13.27
2022-12-08T18:16:53.022Z,13.95
2022-12-08T18:19:26.482Z,13.60
2022-12-08T18:21:54.464Z,14.10
2022-12-08T18:24:23.797Z,14.77
2022-12-08T18:26:52.754Z,13.10
2022-12-08T18:29:21.093Z,12.63
2022-12-08T18:31:48.780Z,10.65
2022-12-08T18:34:16.075Z,10.57
2022-12-08T18:36:49.174Z,9.45
2022-12-08T18:39:24.665Z,9.27
2022-12-08T18:41:56.917Z,8.68
2022-12-08T18:44:50.332Z,7.65
2022-12-08T18:47:26.718Z,6.43
2022-12-08T18:49:57.306Z,6.47
2022-12-08T18:52:31.587Z,6.38
2022-12-08T18:55:07.613Z,6.57
2022-12-08T18:57:38.356Z,7.80
2022-12-08T19:00:11.630Z,8.43
2022-12-08T19:02:44.493Z,8.48
2022-12-08T19:07:48.720Z,10.00
2022-12-08T19:10:22.574Z,9.13
2022-12-08T19:12:53.764Z,8.27
2022-12-08T19:15:22.499Z,8.20
2022-12-08T19:17:55.371Z,7.65
2022-12-08T19:22:52.425Z,6.82
2022-12-08T19:25:22.520Z,6.57
2022-12-08T19:27:54.644Z,8.82
2022-12-08T19:30:26.600Z,6.75
2022-12-08T19:35:33.319Z,5.90
2022-12-08T19:38:01.662Z,6.07
2022-12-08T19:40:47.594Z,6.10
2022-12-08T19:43:38.631Z,5.05
2022-12-08T19:46:06.834Z,3.90
2022-12-08T19:48:34.521Z,4.10
2022-12-08T19:51:04.273Z,4.07
2022-12-08T19:53:31.905Z,3.63
2022-12-08T19:55:59.460Z,3.20
2022-12-08T19:58:26.797Z,2.90
2022-12-08T20:00:54.396Z,3.38
2022-12-08T20:03:22.918Z,2.83
2022-12-08T20:05:52.751Z,3.42
2022-12-08T20:08:20.250Z,3.22
2022-12-08T20:10:47.586Z,3.28
2022-12-08T20:13:33.288Z,4.10
2022-12-08T20:16:00.756Z,3.85
2022-12-08T20:18:28.845Z,4.00
2022-12-08T20:20:57.038Z,6.38
2022-12-08T20:23:24.604Z,5.20
2022-12-08T20:25:52.033Z,5.13
2022-12-08T20:28:19.475Z,5.45
2022-12-08T20:30:52.630Z,5.10
2022-12-08T20:33:20.303Z,5.07
2022-12-08T20:35:48.035Z,5.22
2022-12-08T20:38:16.241Z,5.65
2022-12-08T20:40:44.286Z,5.50
2022-12-08T20:43:11.983Z,6.10
2022-12-08T20:45:39.411Z,5.53
2022-12-08T20:48:07.009Z,5.75
2022-12-08T20:50:34.460Z,6.70
2022-12-08T20:53:01.811Z,6.65
2022-12-08T20:55:29.350Z,6.80
2022-12-08T20:57:57.050Z,6.25
2022-12-08T21:00:26.075Z,6.57
2022-12-08T21:02:56.804Z,8.05
2022-12-08T21:05:24.879Z,8.90
2022-12-08T21:07:52.597Z,8.32
2022-12-08T21:10:20.032Z,7.75
2022-12-08T21:12:47.594Z,8.70
2022-12-08T21:15:14.945Z,9.15
2022-12-08T21:17:42.597Z,9.95
2022-12-08T21:20:10.886Z,11.85
2022-12-08T21:22:40.358Z,13.80
2022-12-08T21:25:09.186Z,13.77
2022-12-08T21:27:37.854Z,15.98
2022-12-08T21:30:06.444Z,23.83
2022-12-08T21:32:34.505Z,25.20
2022-12-08T21:35:02.275Z,26.40
2022-12-08T21:37:30.156Z,26.85
2022-12-08T21:39:57.544Z,27.00
2022-12-08T21:42:43.972Z,28.92
2022-12-08T21:45:19.121Z,30.38
2022-12-08T21:47:47.587Z,31.35
2022-12-08T21:50:15.522Z,31.95
2022-12-08T21:52:45.363Z,29.20
2022-12-08T21:55:13.808Z,31.02
2022-12-08T21:57:41.732Z,33.47
2022-12-08T22:00:11.714Z,32.42
2022-12-08T22:02:39.695Z,33.92
2022-12-08T22:05:07.828Z,32.97
2022-12-08T22:07:39.492Z,31.25
2022-12-08T22:10:11.879Z,34.22
2022-12-08T22:12:40.297Z,39.28
2022-12-08T22:15:09.043Z,38.88
2022-12-08T22:17:38.374Z,40.00
2022-12-08T22:20:12.540Z,43.78
2022-12-08T22:22:40.600Z,44.38
2022-12-08T22:25:12.681Z,44.78
2022-12-08T22:27:41.027Z,46.13
2022-12-08T22:30:09.914Z,48.55
2022-12-08T22:32:37.778Z,50.42
2022-12-08T22:35:05.635Z,50.80
2022-12-08T22:37:33.163Z,49.97
2022-12-08T22:40:00.563Z,51.47
2022-12-08T22:42:28.565Z,53.97
2022-12-08T22:44:55.796Z,55.33
2022-12-08T22:47:22.995Z,48.80
2022-12-08T22:49:50.296Z,46.65
2022-12-08T22:52:17.679Z,46.38
2022-12-08T22:54:45.088Z,44.97
2022-12-08T22:57:12.410Z,44.28
2022-12-08T22:59:40.979Z,43.35
2022-12-08T23:02:08.735Z,42.75
2022-12-08T23:04:36.570Z,41.72
2022-12-08T23:07:04.233Z,40.45
2022-12-08T23:09:31.699Z,39.97
2022-12-08T23:11:59.150Z,40.75
2022-12-08T23:14:26.502Z,40.55
2022-12-08T23:16:53.949Z,40.28
2022-12-08T23:19:21.574Z,39.63
2022-12-08T23:21:48.824Z,41.05
2022-12-08T23:24:16.293Z,42.88
2022-12-08T23:26:44.364Z,43.33
2022-12-08T23:29:11.744Z,42.17
2022-12-08T23:31:39.359Z,43.65
2022-12-08T23:34:06.945Z,43.40
2022-12-08T23:36:34.432Z,42.13
2022-12-08T23:39:01.901Z,44.97
2022-12-08T23:41:29.188Z,44.50
2022-12-08T23:43:56.857Z,41.78
2022-12-08T23:46:24.589Z,44.33
2022-12-08T23:48:51.923Z,41.80
2022-12-08T23:51:20.102Z,43.55
2022-12-08T23:53:47.730Z,42.85
2022-12-08T23:56:17.367Z,45.28
2022-12-08T23:58:45.511Z,39.75
